createdAt,value
2019-02-18T00:00:18.084Z,982.49
2019-02-18T00:01:28.074Z,982.41
2019-02-18T00:02:38.095Z,982.37
2019-02-18T00:03:48.016Z,982.36
2019-02-18T00:04:57.968Z,982.34
2019-02-18T00:06:07.896Z,982.29
2019-02-18T00:07:17.823Z,982.28
2019-02-18T00:08:27.849Z,982.22
2019-02-18T00:09:37.775Z,982.16
2019-02-18T00:10:47.692Z,982.14
2019-02-18T00:11:57.622Z,982.14
2019-02-18T00:13:07.551Z,982.13
2019-02-18T00:14:17.574Z,982.15
2019-02-18T00:15:27.248Z,982.15
2019-02-18T00:16:37.170Z,982.06
2019-02-18T00:17:47.093Z,982.08
2019-02-18T00:18:57.009Z,982.04
2019-02-18T00:20:06.926Z,982.08
2019-02-18T00:21:16.846Z,982.08
2019-02-18T00:22:26.853Z,982.06
2019-02-18T00:23:36.784Z,982.02
2019-02-18T00:24:46.708Z,982.05
2019-02-18T00:25:56.762Z,982.01
2019-02-18T00:27:06.705Z,981.99
2019-02-18T00:28:16.628Z,982.04
2019-02-18T00:29:26.563Z,982.01
2019-02-18T00:30:36.487Z,981.92
2019-02-18T00:31:46.408Z,981.94
2019-02-18T00:32:56.332Z,981.96
2019-02-18T00:34:06.252Z,981.93
2019-02-18T00:35:16.169Z,981.93
2019-02-18T00:36:26.100Z,981.95
2019-02-18T00:37:36.183Z,981.94
2019-02-18T00:38:46.190Z,981.97
2019-02-18T00:39:56.171Z,982.02
2019-02-18T00:41:06.095Z,981.98
2019-02-18T00:42:16.010Z,982.02
2019-02-18T00:43:25.988Z,981.91
2019-02-18T00:44:35.904Z,981.92
2019-02-18T00:45:45.827Z,981.87
2019-02-18T00:46:55.763Z,981.88
2019-02-18T00:48:05.698Z,981.86
2019-02-18T00:49:15.726Z,981.86
2019-02-18T00:50:25.660Z,981.83
2019-02-18T00:51:35.581Z,981.8
2019-02-18T00:52:45.502Z,981.83
2019-02-18T00:53:55.426Z,981.88
2019-02-18T00:55:05.343Z,981.83
2019-02-18T00:56:15.282Z,981.92
2019-02-18T00:57:25.222Z,981.88
2019-02-18T00:58:35.141Z,981.83
2019-02-18T00:59:46.620Z,981.8
2019-02-18T01:00:56.651Z,981.67
2019-02-18T01:02:06.578Z,981.74
2019-02-18T01:03:16.500Z,981.73
2019-02-18T01:04:26.421Z,981.65
2019-02-18T01:05:36.335Z,981.67
2019-02-18T01:06:46.356Z,981.67
2019-02-18T01:07:56.277Z,981.65
2019-02-18T01:09:06.206Z,981.62
2019-02-18T01:10:16.128Z,981.6
2019-02-18T01:11:26.054Z,981.53
2019-02-18T01:12:35.729Z,981.56
2019-02-18T01:13:45.401Z,981.51
2019-02-18T01:14:55.321Z,981.48
2019-02-18T01:16:05.526Z,981.49
2019-02-18T01:17:15.473Z,981.41
2019-02-18T01:18:25.502Z,981.41
2019-02-18T01:19:35.473Z,981.39
2019-02-18T01:20:45.413Z,981.37
2019-02-18T01:21:55.343Z,981.35
2019-02-18T01:23:05.269Z,981.35
2019-02-18T01:24:15.293Z,981.31
2019-02-18T01:25:25.244Z,981.32
2019-02-18T01:26:35.187Z,981.33
2019-02-18T01:27:45.109Z,981.27
2019-02-18T01:28:55.039Z,981.26
2019-02-18T01:30:05.098Z,981.3
2019-02-18T01:31:15.095Z,981.16
2019-02-18T01:32:25.018Z,981.18
2019-02-18T01:33:34.933Z,981.2
2019-02-18T01:34:44.855Z,981.24
2019-02-18T01:35:54.848Z,981.28
2019-02-18T01:37:04.787Z,981.3
2019-02-18T01:38:14.712Z,981.33
2019-02-18T01:39:24.639Z,981.17
2019-02-18T01:40:34.563Z,981.25
2019-02-18T01:41:44.482Z,981.24
2019-02-18T01:42:54.407Z,981.23
2019-02-18T01:44:04.326Z,981.21
2019-02-18T01:45:14.251Z,981.22
2019-02-18T01:46:24.175Z,981.12
2019-02-18T01:47:34.302Z,981.09
2019-02-18T01:48:44.263Z,981.08
2019-02-18T01:49:54.191Z,981.05
2019-02-18T01:51:04.115Z,981.02
2019-02-18T01:52:14.037Z,980.99
2019-02-18T01:53:24.060Z,981.04
2019-02-18T01:54:34.010Z,980.97
2019-02-18T01:55:43.928Z,980.93
2019-02-18T01:56:53.874Z,980.97
2019-02-18T01:58:03.792Z,980.91
2019-02-18T01:59:13.714Z,980.87
2019-02-18T02:00:23.383Z,980.89
2019-02-18T02:01:33.317Z,980.82
2019-02-18T02:02:43.246Z,980.78
2019-02-18T02:03:53.214Z,980.82
2019-02-18T02:05:03.246Z,980.9
2019-02-18T02:06:13.182Z,980.8
2019-02-18T02:07:23.103Z,980.8
2019-02-18T02:08:33.022Z,980.77
2019-02-18T02:09:42.948Z,980.7
2019-02-18T02:10:52.865Z,980.73
2019-02-18T02:12:02.821Z,980.63
2019-02-18T02:13:12.752Z,980.68
2019-02-18T02:14:22.671Z,980.66
2019-02-18T02:15:32.354Z,980.7
2019-02-18T02:16:42.279Z,980.67
2019-02-18T02:17:52.233Z,980.69
2019-02-18T02:19:02.198Z,980.6
2019-02-18T02:20:12.115Z,980.57
2019-02-18T02:21:22.040Z,980.6
2019-02-18T02:22:32.111Z,980.66
2019-02-18T02:23:42.037Z,980.63
2019-02-18T02:24:51.964Z,980.66
2019-02-18T02:26:01.895Z,980.62
2019-02-18T02:27:11.849Z,980.58
2019-02-18T02:28:21.875Z,980.62
2019-02-18T02:29:31.799Z,980.62
2019-02-18T02:30:41.751Z,980.62
2019-02-18T02:31:51.679Z,980.57
2019-02-18T02:33:01.642Z,980.56
2019-02-18T02:34:11.592Z,980.56
2019-02-18T02:35:21.546Z,980.48
2019-02-18T02:36:31.506Z,980.39
2019-02-18T02:37:41.443Z,980.35
2019-02-18T02:38:51.442Z,980.35
2019-02-18T02:40:01.501Z,980.3
2019-02-18T02:41:11.469Z,980.28
2019-02-18T02:42:21.418Z,980.32
2019-02-18T02:43:31.363Z,980.27
2019-02-18T02:44:41.303Z,980.25
2019-02-18T02:45:51.356Z,980.27
2019-02-18T02:47:01.328Z,980.22
2019-02-18T02:48:11.284Z,980.24
2019-02-18T02:49:21.218Z,980.26
2019-02-18T02:50:31.205Z,980.27
2019-02-18T02:51:41.153Z,980.27
2019-02-18T02:52:51.137Z,980.3
2019-02-18T02:54:01.074Z,980.27
2019-02-18T02:55:11.073Z,980.26
2019-02-18T02:56:20.998Z,980.19
2019-02-18T02:57:30.979Z,980.2
2019-02-18T02:58:40.946Z,980.17
2019-02-18T02:59:50.866Z,980.14
2019-02-18T03:01:00.798Z,980.14
2019-02-18T03:02:10.730Z,980.15
2019-02-18T03:03:20.677Z,980.1
2019-02-18T03:04:30.620Z,980.1
2019-02-18T03:05:40.538Z,980.08
2019-02-18T03:06:50.482Z,980.09
2019-02-18T03:08:00.449Z,980.09
2019-02-18T03:09:22.867Z,980.09
2019-02-18T03:10:32.822Z,980.1
2019-02-18T03:11:42.763Z,980.09
2019-02-18T03:12:52.739Z,980.1
2019-02-18T03:14:02.680Z,980.03
2019-02-18T03:15:12.615Z,979.99
2019-02-18T03:16:22.570Z,979.88
2019-02-18T03:17:32.509Z,979.92
2019-02-18T03:18:42.435Z,979.94
2019-02-18T03:19:52.367Z,979.9
2019-02-18T03:21:02.285Z,979.87
2019-02-18T03:22:12.217Z,979.83
2019-02-18T03:23:22.153Z,979.8
2019-02-18T03:24:32.100Z,979.8
2019-02-18T03:25:42.114Z,979.83
2019-02-18T03:26:52.041Z,979.79
2019-02-18T03:28:01.967Z,979.82
2019-02-18T03:29:11.900Z,979.77
2019-02-18T03:30:21.856Z,979.8
2019-02-18T03:31:31.826Z,979.76
2019-02-18T03:32:41.790Z,979.75
2019-02-18T03:33:51.732Z,979.75
2019-02-18T03:35:01.959Z,979.77
2019-02-18T03:36:11.897Z,979.69
2019-02-18T03:37:21.928Z,979.63
2019-02-18T03:38:32.132Z,979.58
2019-02-18T03:39:42.117Z,979.59
2019-02-18T03:41:02.419Z,979.56
2019-02-18T03:42:12.669Z,979.61
2019-02-18T03:43:22.591Z,979.57
2019-02-18T03:44:32.535Z,979.56
2019-02-18T03:45:42.462Z,979.56
2019-02-18T03:46:52.392Z,979.5
2019-02-18T03:48:02.322Z,979.49
2019-02-18T03:49:12.116Z,979.49
2019-02-18T03:50:22.078Z,979.49
2019-02-18T03:51:32.014Z,979.55
2019-02-18T03:52:41.940Z,979.47
2019-02-18T03:53:51.967Z,979.45
2019-02-18T03:55:02.060Z,979.44
2019-02-18T03:56:12.003Z,979.35
2019-02-18T03:57:21.943Z,979.33
2019-02-18T03:58:31.902Z,979.31
2019-02-18T03:59:41.844Z,979.31
2019-02-18T04:00:51.875Z,979.36
2019-02-18T04:02:01.798Z,979.36
2019-02-18T04:03:11.726Z,979.35
2019-02-18T04:04:21.666Z,979.36
2019-02-18T04:05:31.596Z,979.36
2019-02-18T04:06:41.517Z,979.32
2019-02-18T04:07:51.445Z,979.29
2019-02-18T04:09:01.371Z,979.24
2019-02-18T04:10:11.321Z,979.18
2019-02-18T04:11:21.260Z,979.14
2019-02-18T04:12:31.321Z,979.15
2019-02-18T04:13:41.361Z,979.09
2019-02-18T04:14:51.283Z,979.11
2019-02-18T04:16:00.990Z,979.07
2019-02-18T04:17:10.917Z,979.04
2019-02-18T04:18:20.951Z,979.04
2019-02-18T04:19:30.883Z,979.01
2019-02-18T04:20:40.819Z,978.95
2019-02-18T04:21:50.755Z,978.95
2019-02-18T04:23:00.696Z,978.91
2019-02-18T04:24:10.719Z,978.89
2019-02-18T04:25:20.642Z,978.86
2019-02-18T04:26:30.590Z,978.87
2019-02-18T04:27:40.522Z,978.81
2019-02-18T04:28:50.452Z,978.84
2019-02-18T04:30:00.483Z,978.85
2019-02-18T04:31:10.422Z,978.8
2019-02-18T04:32:20.353Z,978.75
2019-02-18T04:33:30.276Z,978.8
2019-02-18T04:34:40.209Z,978.76
2019-02-18T04:35:49.957Z,978.7
2019-02-18T04:36:59.877Z,978.73
2019-02-18T04:38:09.874Z,978.71
2019-02-18T04:39:19.804Z,978.7
2019-02-18T04:40:29.752Z,978.71
2019-02-18T04:41:39.539Z,978.71
2019-02-18T04:42:49.472Z,978.67
2019-02-18T04:43:59.391Z,978.63
2019-02-18T04:45:09.325Z,978.59
2019-02-18T04:46:19.268Z,978.58
2019-02-18T04:47:29.198Z,978.57
2019-02-18T04:48:39.124Z,978.55
2019-02-18T04:49:49.047Z,978.57
2019-02-18T04:50:58.983Z,978.54
2019-02-18T04:52:08.669Z,978.48
2019-02-18T04:53:18.701Z,978.44
2019-02-18T04:54:28.640Z,978.39
2019-02-18T04:55:38.680Z,978.4
2019-02-18T04:56:48.620Z,978.34
2019-02-18T04:57:58.572Z,978.37
2019-02-18T04:59:11.247Z,978.35
2019-02-18T05:00:21.209Z,978.36
2019-02-18T05:01:31.136Z,978.33
2019-02-18T05:02:41.058Z,978.32
2019-02-18T05:03:51.037Z,978.27
2019-02-18T05:05:01.092Z,978.26
2019-02-18T05:06:11.040Z,978.23
2019-02-18T05:07:20.993Z,978.24
2019-02-18T05:08:30.923Z,978.24
2019-02-18T05:09:40.850Z,978.23
2019-02-18T05:10:50.783Z,978.23
2019-02-18T05:12:00.702Z,978.23
2019-02-18T05:13:10.631Z,978.14
2019-02-18T05:14:20.569Z,978.19
2019-02-18T05:15:30.515Z,978.17
2019-02-18T05:16:43.191Z,978.18
2019-02-18T05:17:53.110Z,978.1
2019-02-18T05:19:03.057Z,978.13
2019-02-18T05:20:12.731Z,978.06
2019-02-18T05:21:22.653Z,978.07
2019-02-18T05:22:32.686Z,978.01
2019-02-18T05:23:42.627Z,977.95
2019-02-18T05:24:52.554Z,977.96
2019-02-18T05:26:02.488Z,977.91
2019-02-18T05:27:12.440Z,977.92
2019-02-18T05:28:33.511Z,977.95
2019-02-18T05:29:43.520Z,977.95
2019-02-18T05:30:53.221Z,977.87
2019-02-18T05:32:03.162Z,977.84
2019-02-18T05:33:12.835Z,977.8
2019-02-18T05:34:22.545Z,977.8
2019-02-18T05:35:32.484Z,977.84
2019-02-18T05:36:42.446Z,977.83
2019-02-18T05:37:52.391Z,977.86
2019-02-18T05:39:02.167Z,977.9
2019-02-18T05:40:23.154Z,977.88
2019-02-18T05:41:33.086Z,977.93
2019-02-18T05:42:43.018Z,977.96
2019-02-18T05:43:52.719Z,978.06
2019-02-18T05:45:02.401Z,978.05
2019-02-18T05:46:12.352Z,978.05
2019-02-18T05:47:22.300Z,978.01
2019-02-18T05:48:33.982Z,978.01
2019-02-18T05:49:44.184Z,978.06
2019-02-18T05:50:54.159Z,978.01
2019-02-18T05:52:04.235Z,978.01
2019-02-18T05:53:14.337Z,977.96
2019-02-18T05:54:24.287Z,977.96
2019-02-18T05:55:34.236Z,977.97
2019-02-18T05:56:44.167Z,977.99
2019-02-18T05:57:54.163Z,977.95
2019-02-18T05:59:04.103Z,977.98
2019-02-18T06:00:14.042Z,977.98
2019-02-18T06:01:23.973Z,977.97
2019-02-18T06:02:33.901Z,977.86
2019-02-18T06:03:43.868Z,977.9
2019-02-18T06:04:53.863Z,977.81
2019-02-18T06:06:03.798Z,977.81
2019-02-18T06:07:13.723Z,977.75
2019-02-18T06:08:23.656Z,977.82
2019-02-18T06:09:33.584Z,977.88
2019-02-18T06:10:43.538Z,977.82
2019-02-18T06:11:53.246Z,977.81
2019-02-18T06:13:03.176Z,977.78
2019-02-18T06:14:13.114Z,977.72
2019-02-18T06:15:23.140Z,977.8
2019-02-18T06:16:33.141Z,977.68
2019-02-18T06:17:43.080Z,977.62
2019-02-18T06:18:53.016Z,977.57
2019-02-18T06:20:02.946Z,977.53
2019-02-18T06:21:12.973Z,977.41
2019-02-18T06:22:22.896Z,977.43
2019-02-18T06:23:32.573Z,977.56
2019-02-18T06:24:42.517Z,977.54
2019-02-18T06:25:52.441Z,977.48
2019-02-18T06:27:02.501Z,977.38
2019-02-18T06:28:12.424Z,977.2
2019-02-18T06:29:22.384Z,977.05
2019-02-18T06:30:32.321Z,977.26
2019-02-18T06:31:42.267Z,977.4
2019-02-18T06:32:52.254Z,977.44
2019-02-18T06:34:04.056Z,977.37
2019-02-18T06:35:13.978Z,977.36
2019-02-18T06:36:24.035Z,977.41
2019-02-18T06:37:34.047Z,977.4
2019-02-18T06:38:44.082Z,977.38
2019-02-18T06:39:54.017Z,977.43
2019-02-18T06:41:03.968Z,977.35
2019-02-18T06:42:13.900Z,977.28
2019-02-18T06:43:23.834Z,977.3
2019-02-18T06:44:33.866Z,977.35
2019-02-18T06:45:43.809Z,977.32
2019-02-18T06:46:53.732Z,977.35
2019-02-18T06:48:03.655Z,977.4
2019-02-18T06:49:13.579Z,977.44
2019-02-18T06:50:23.601Z,977.42
2019-02-18T06:51:33.521Z,977.46
2019-02-18T06:52:43.444Z,977.44
2019-02-18T06:53:53.370Z,977.45
2019-02-18T06:55:03.289Z,977.49
2019-02-18T06:56:13.371Z,977.53
2019-02-18T06:57:23.044Z,977.56
2019-02-18T06:58:32.968Z,977.55
2019-02-18T06:59:42.890Z,977.58
2019-02-18T07:00:52.806Z,977.57
2019-02-18T07:02:02.840Z,977.57
2019-02-18T07:03:12.777Z,977.57
2019-02-18T07:04:23.857Z,977.58
2019-02-18T07:05:33.788Z,977.6
2019-02-18T07:06:43.718Z,977.58
2019-02-18T07:07:53.755Z,977.55
2019-02-18T07:09:03.686Z,977.64
2019-02-18T07:10:13.618Z,977.61
2019-02-18T07:11:23.282Z,977.61
2019-02-18T07:12:33.216Z,977.65
2019-02-18T07:13:43.188Z,977.65
2019-02-18T07:14:52.884Z,977.65
2019-02-18T07:16:02.816Z,977.71
2019-02-18T07:17:12.774Z,977.68
2019-02-18T07:18:22.696Z,977.66
2019-02-18T07:19:32.717Z,977.63
2019-02-18T07:20:42.669Z,977.68
2019-02-18T07:21:52.599Z,977.68
2019-02-18T07:23:02.530Z,977.62
2019-02-18T07:24:12.457Z,977.54
2019-02-18T07:25:23.119Z,977.55
2019-02-18T07:26:33.053Z,977.48
2019-02-18T07:27:42.976Z,977.5
2019-02-18T07:28:52.930Z,977.44
2019-02-18T07:30:02.854Z,977.46
2019-02-18T07:31:12.774Z,977.49
2019-02-18T07:32:22.699Z,977.49
2019-02-18T07:33:32.622Z,977.48
2019-02-18T07:34:42.552Z,977.41
2019-02-18T07:35:52.486Z,977.41
2019-02-18T07:37:02.541Z,977.37
2019-02-18T07:38:12.474Z,977.37
2019-02-18T07:39:22.158Z,977.36
2019-02-18T07:40:32.090Z,977.34
2019-02-18T07:41:42.029Z,977.35
2019-02-18T07:42:52.009Z,977.35
2019-02-18T07:44:01.933Z,977.31
2019-02-18T07:45:11.902Z,977.22
2019-02-18T07:46:21.837Z,977.23
2019-02-18T07:47:31.767Z,977.22
2019-02-18T07:48:41.688Z,977.16
2019-02-18T07:49:51.613Z,977.13
2019-02-18T07:51:01.529Z,977.07
2019-02-18T07:52:11.452Z,976.96
2019-02-18T07:53:21.372Z,976.89
2019-02-18T07:54:31.419Z,976.82
2019-02-18T07:55:41.343Z,976.69
2019-02-18T07:56:51.269Z,976.7
2019-02-18T07:58:01.192Z,976.76
2019-02-18T07:59:11.110Z,976.97
2019-02-18T08:00:21.037Z,976.98
2019-02-18T08:01:30.958Z,977.06
2019-02-18T08:02:40.886Z,977.1
2019-02-18T08:03:50.811Z,977.08
2019-02-18T08:05:02.205Z,977.08
2019-02-18T08:06:12.543Z,977.06
2019-02-18T08:07:22.463Z,977.06
2019-02-18T08:08:32.386Z,977
2019-02-18T08:09:42.307Z,977
2019-02-18T08:10:52.225Z,976.97
2019-02-18T08:12:02.202Z,977.05
2019-02-18T08:13:12.122Z,977.04
2019-02-18T08:14:22.047Z,977.06
2019-02-18T08:15:31.967Z,977.03
2019-02-18T08:16:41.904Z,977.02
2019-02-18T08:17:51.925Z,976.98
2019-02-18T08:19:01.849Z,976.95
2019-02-18T08:20:11.544Z,977.02
2019-02-18T08:21:21.502Z,976.98
2019-02-18T08:22:31.430Z,976.97
2019-02-18T08:23:41.407Z,976.98
2019-02-18T08:25:00.465Z,976.91
2019-02-18T08:26:10.388Z,976.89
2019-02-18T08:27:20.322Z,976.93
2019-02-18T08:28:30.245Z,976.83
2019-02-18T08:29:40.229Z,976.85
2019-02-18T08:30:50.152Z,976.83
2019-02-18T08:32:00.162Z,976.87
2019-02-18T08:33:11.402Z,976.88
2019-02-18T08:34:21.340Z,976.84
2019-02-18T08:35:31.386Z,976.84
2019-02-18T08:36:41.328Z,976.86
2019-02-18T08:37:51.244Z,976.83
2019-02-18T08:39:01.171Z,976.83
2019-02-18T08:40:11.093Z,976.91
2019-02-18T08:41:30.184Z,976.94
2019-02-18T08:42:40.108Z,976.91
2019-02-18T08:43:50.049Z,976.92
2019-02-18T08:44:59.985Z,976.86
2019-02-18T08:46:09.927Z,976.85
2019-02-18T08:47:19.946Z,976.81
2019-02-18T08:48:29.874Z,976.78
2019-02-18T08:49:39.886Z,976.79
2019-02-18T08:50:49.808Z,976.86
2019-02-18T08:51:59.763Z,976.85
2019-02-18T08:53:09.800Z,976.83
2019-02-18T08:54:19.728Z,976.85
2019-02-18T08:55:29.658Z,976.83
2019-02-18T08:56:39.635Z,976.83
2019-02-18T08:57:49.574Z,976.86
2019-02-18T08:58:59.604Z,976.77
2019-02-18T09:00:11.574Z,976.8
2019-02-18T09:01:21.502Z,976.8
2019-02-18T09:02:31.436Z,976.75
2019-02-18T09:03:41.359Z,976.8
2019-02-18T09:04:51.330Z,976.78
2019-02-18T09:06:01.285Z,976.84
2019-02-18T09:07:11.215Z,976.78
2019-02-18T09:08:21.145Z,976.83
2019-02-18T09:09:31.076Z,976.74
2019-02-18T09:10:41.117Z,976.67
2019-02-18T09:11:51.051Z,976.7
2019-02-18T09:13:00.722Z,976.66
2019-02-18T09:14:10.682Z,976.71
2019-02-18T09:15:20.603Z,976.69
2019-02-18T09:16:30.625Z,976.66
2019-02-18T09:17:40.550Z,976.68
2019-02-18T09:18:50.230Z,976.53
2019-02-18T09:20:00.357Z,976.56
2019-02-18T09:21:10.296Z,976.63
2019-02-18T09:22:20.338Z,976.63
2019-02-18T09:23:30.257Z,976.61
2019-02-18T09:24:40.237Z,976.57
2019-02-18T09:25:50.171Z,976.61
2019-02-18T09:27:00.114Z,976.64
2019-02-18T09:28:10.140Z,976.55
2019-02-18T09:29:20.093Z,976.5
2019-02-18T09:30:30.023Z,976.51
2019-02-18T09:31:39.954Z,976.49
2019-02-18T09:32:50.567Z,976.5
2019-02-18T09:34:00.646Z,976.49
2019-02-18T09:35:10.329Z,976.47
2019-02-18T09:36:21.408Z,976.47
2019-02-18T09:37:31.492Z,976.45
2019-02-18T09:38:41.423Z,976.48
2019-02-18T09:39:51.249Z,976.48
2019-02-18T09:41:01.171Z,976.43
2019-02-18T09:42:11.092Z,976.38
2019-02-18T09:43:21.009Z,976.4
2019-02-18T09:44:30.932Z,976.37
2019-02-18T09:45:40.915Z,976.38
2019-02-18T09:46:50.842Z,976.4
2019-02-18T09:48:00.784Z,976.41
2019-02-18T09:49:10.718Z,976.42
2019-02-18T09:50:20.639Z,976.46
2019-02-18T09:51:30.620Z,976.45
2019-02-18T09:52:40.546Z,976.41
2019-02-18T09:53:50.476Z,976.38
2019-02-18T09:55:00.400Z,976.38
2019-02-18T09:56:10.343Z,976.36
2019-02-18T09:57:20.319Z,976.25
2019-02-18T09:58:30.256Z,976.25
2019-02-18T09:59:40.179Z,976.22
2019-02-18T10:00:50.127Z,976.24
2019-02-18T10:02:00.048Z,976.24
2019-02-18T10:03:09.772Z,976.2
2019-02-18T10:04:19.706Z,976.15
2019-02-18T10:05:30.344Z,976.04
2019-02-18T10:06:40.284Z,976.04
2019-02-18T10:07:50.205Z,976.08
2019-02-18T10:09:00.186Z,976.14
2019-02-18T10:10:10.113Z,976.19
2019-02-18T10:11:19.824Z,976.15
2019-02-18T10:12:29.745Z,976.18
2019-02-18T10:13:39.670Z,976.19
2019-02-18T10:14:49.700Z,976.21
2019-02-18T10:15:59.633Z,976.24
2019-02-18T10:17:09.573Z,976.22
2019-02-18T10:18:19.494Z,976.21
2019-02-18T10:19:29.416Z,976.25
2019-02-18T10:20:39.340Z,976.26
2019-02-18T10:21:49.264Z,976.26
2019-02-18T10:22:59.199Z,976.27
2019-02-18T10:24:08.950Z,976.26
2019-02-18T10:25:18.871Z,976.27
2019-02-18T10:26:28.895Z,976.23
2019-02-18T10:27:38.829Z,976.18
2019-02-18T10:28:48.791Z,976.21
2019-02-18T10:29:58.741Z,976.15
2019-02-18T10:31:08.680Z,976.14
2019-02-18T10:32:18.665Z,976.12
2019-02-18T10:33:28.654Z,976.1
2019-02-18T10:34:38.578Z,976.09
2019-02-18T10:35:48.520Z,976.04
2019-02-18T10:36:58.456Z,976.04
2019-02-18T10:38:08.435Z,976.04
2019-02-18T10:39:18.369Z,975.97
2019-02-18T10:40:28.329Z,976
2019-02-18T10:41:38.276Z,976.01
2019-02-18T10:42:48.245Z,976.06
2019-02-18T10:43:58.228Z,976.01
2019-02-18T10:45:08.168Z,976.08
2019-02-18T10:46:18.127Z,976.08
2019-02-18T10:47:28.079Z,976.02
2019-02-18T10:48:38.019Z,976
2019-02-18T10:49:48.079Z,976
2019-02-18T10:50:58.036Z,976.06
2019-02-18T10:52:08.042Z,976.02
2019-02-18T10:53:18.042Z,976.05
2019-02-18T10:54:28.043Z,975.99
2019-02-18T10:55:38.083Z,976.02
2019-02-18T10:56:48.028Z,976.04
2019-02-18T10:57:57.979Z,976.02
2019-02-18T10:59:07.935Z,975.98
2019-02-18T11:00:17.898Z,975.96
2019-02-18T11:01:27.718Z,975.93
2019-02-18T11:02:37.673Z,975.92
2019-02-18T11:03:47.650Z,975.98
2019-02-18T11:04:57.692Z,975.96
2019-02-18T11:06:09.291Z,975.94
2019-02-18T11:07:19.555Z,975.95
2019-02-18T11:08:29.491Z,975.96
2019-02-18T11:09:39.419Z,975.95
2019-02-18T11:10:49.343Z,975.97
2019-02-18T11:11:59.271Z,975.84
2019-02-18T11:13:09.328Z,975.92
2019-02-18T11:14:19.293Z,975.89
2019-02-18T11:15:29.270Z,975.85
2019-02-18T11:16:39.228Z,975.87
2019-02-18T11:17:49.226Z,975.87
2019-02-18T11:18:59.203Z,975.86
2019-02-18T11:20:09.230Z,975.81
2019-02-18T11:21:19.272Z,975.84
2019-02-18T11:22:29.225Z,975.75
2019-02-18T11:23:39.193Z,975.72
2019-02-18T11:24:49.247Z,975.66
2019-02-18T11:25:59.205Z,975.61
2019-02-18T11:27:09.162Z,975.61
2019-02-18T11:28:19.113Z,975.62
2019-02-18T11:29:29.079Z,975.66
2019-02-18T11:30:39.312Z,975.66
2019-02-18T11:31:49.328Z,975.7
2019-02-18T11:32:59.281Z,975.69
2019-02-18T11:34:09.008Z,975.78
2019-02-18T11:35:18.996Z,975.75
2019-02-18T11:36:28.989Z,975.76
2019-02-18T11:37:38.962Z,975.72
2019-02-18T11:38:48.936Z,975.71
2019-02-18T11:39:58.949Z,975.71
2019-02-18T11:41:08.662Z,975.75
2019-02-18T11:42:27.899Z,975.6
2019-02-18T11:43:40.703Z,975.64
2019-02-18T11:44:51.272Z,975.64
2019-02-18T11:46:02.014Z,975.63
2019-02-18T11:47:12.876Z,975.58
2019-02-18T11:48:23.806Z,975.57
2019-02-18T11:49:34.332Z,975.58
2019-02-18T11:50:44.428Z,975.63
2019-02-18T11:51:54.391Z,975.66
2019-02-18T11:53:05.363Z,975.63
2019-02-18T11:54:15.408Z,975.59
2019-02-18T11:55:25.356Z,975.61
2019-02-18T11:56:35.302Z,975.58
2019-02-18T11:57:45.266Z,975.52
2019-02-18T11:58:55.227Z,975.49
2019-02-18T12:00:05.264Z,975.53
2019-02-18T12:01:15.386Z,975.51
2019-02-18T12:02:25.413Z,975.47
2019-02-18T12:03:35.383Z,975.39
2019-02-18T12:04:45.122Z,975.43
2019-02-18T12:05:55.088Z,975.4
2019-02-18T12:07:05.079Z,975.43
2019-02-18T12:08:15.043Z,975.39
2019-02-18T12:09:25.025Z,975.37
2019-02-18T12:10:35.037Z,975.37
2019-02-18T12:11:45.120Z,975.34
2019-02-18T12:12:55.877Z,975.28
2019-02-18T12:14:06.023Z,975.33
2019-02-18T12:15:16.022Z,975.35
2019-02-18T12:16:26.057Z,975.42
2019-02-18T12:17:36.242Z,975.38
2019-02-18T12:18:46.239Z,975.38
2019-02-18T12:19:56.205Z,975.39
2019-02-18T12:21:06.170Z,975.32
2019-02-18T12:22:15.898Z,975.34
2019-02-18T12:23:26.038Z,975.33
2019-02-18T12:24:36.037Z,975.33
2019-02-18T12:25:46.868Z,975.26
2019-02-18T12:26:56.863Z,975.28
2019-02-18T12:28:06.866Z,975.29
2019-02-18T12:29:26.011Z,975.22
2019-02-18T12:30:36.176Z,975.21
2019-02-18T12:31:46.171Z,975.15
2019-02-18T12:32:56.126Z,975.13
2019-02-18T12:34:06.123Z,975.13
2019-02-18T12:35:16.117Z,975.1
2019-02-18T12:36:37.655Z,975.05
2019-02-18T12:37:54.856Z,975.07
2019-02-18T12:39:05.396Z,975.1
2019-02-18T12:40:15.357Z,975.05
2019-02-18T12:41:25.431Z,975.05
2019-02-18T12:42:35.377Z,975.02
2019-02-18T12:43:47.540Z,974.97
2019-02-18T12:44:57.515Z,974.95
2019-02-18T12:46:15.469Z,974.97
2019-02-18T12:47:25.728Z,974.97
2019-02-18T12:48:35.731Z,974.91
2019-02-18T12:49:45.749Z,974.93
2019-02-18T12:50:56.356Z,974.9
2019-02-18T12:52:06.451Z,974.9
2019-02-18T12:53:16.462Z,974.91
2019-02-18T12:54:26.525Z,974.99
2019-02-18T12:55:36.515Z,974.99
2019-02-18T12:56:46.700Z,974.94
2019-02-18T12:57:56.747Z,974.9
2019-02-18T12:59:06.523Z,974.84
2019-02-18T13:00:16.674Z,974.88
2019-02-18T13:01:27.765Z,974.87
2019-02-18T13:02:43.986Z,974.89
2019-02-18T13:03:54.812Z,974.84
2019-02-18T13:05:04.925Z,974.83
2019-02-18T13:06:15.107Z,974.83
2019-02-18T13:07:25.159Z,974.81
2019-02-18T13:08:35.191Z,974.81
2019-02-18T13:09:45.286Z,974.79
2019-02-18T13:10:55.318Z,974.73
2019-02-18T13:12:05.368Z,974.68
2019-02-18T13:13:15.431Z,974.67
2019-02-18T13:15:50.631Z,974.74
2019-02-18T13:17:00.903Z,974.74
2019-02-18T13:18:11.236Z,974.71
2019-02-18T13:19:21.361Z,974.7
2019-02-18T13:20:31.980Z,974.69
2019-02-18T13:21:42.819Z,974.72
2019-02-18T13:22:53.471Z,974.65
2019-02-18T13:24:04.215Z,974.65
2019-02-18T13:25:15.171Z,974.64
2019-02-18T13:26:25.928Z,974.65
2019-02-18T13:27:36.649Z,974.63
2019-02-18T13:28:47.185Z,974.59
2019-02-18T13:29:57.415Z,974.57
2019-02-18T13:31:07.717Z,974.57
2019-02-18T13:32:17.952Z,974.55
2019-02-18T13:33:27.914Z,974.54
2019-02-18T13:34:37.912Z,974.54
2019-02-18T13:35:48.771Z,974.44
2019-02-18T13:36:58.832Z,974.47
2019-02-18T13:38:08.903Z,974.45
2019-02-18T13:39:18.892Z,974.45
2019-02-18T13:40:28.857Z,974.43
2019-02-18T13:41:38.854Z,974.45
2019-02-18T13:42:48.848Z,974.45
2019-02-18T13:43:58.899Z,974.39
2019-02-18T13:45:08.886Z,974.43
2019-02-18T13:46:18.855Z,974.45
2019-02-18T13:47:28.818Z,974.34
2019-02-18T13:48:38.813Z,974.36
2019-02-18T13:49:48.836Z,974.32
2019-02-18T13:50:58.821Z,974.32
2019-02-18T13:52:08.787Z,974.24
2019-02-18T13:53:18.775Z,974.22
2019-02-18T13:54:28.761Z,974.2
2019-02-18T13:55:38.778Z,974.17
2019-02-18T13:56:48.740Z,974.15
2019-02-18T13:57:58.716Z,974.11
2019-02-18T13:59:08.691Z,974.07
2019-02-18T14:00:18.683Z,974.13
2019-02-18T14:01:28.747Z,974.13
2019-02-18T14:02:38.475Z,974.07
2019-02-18T14:03:48.468Z,974.09
2019-02-18T14:04:58.474Z,974.07
2019-02-18T14:06:08.451Z,974.14
2019-02-18T14:07:18.519Z,974.06
2019-02-18T14:08:28.521Z,974.02
2019-02-18T14:09:38.504Z,974.09
2019-02-18T14:10:48.261Z,974.05
2019-02-18T14:11:58.231Z,974.04
2019-02-18T14:13:16.375Z,974.03
2019-02-18T14:14:26.352Z,974.09
2019-02-18T14:15:36.333Z,974.06
2019-02-18T14:16:46.360Z,974.01
2019-02-18T14:17:56.334Z,973.96
2019-02-18T14:19:06.446Z,973.96
2019-02-18T14:20:16.731Z,974
2019-02-18T14:21:27.097Z,973.95
2019-02-18T14:22:37.986Z,973.99
2019-02-18T14:23:48.913Z,973.97
2019-02-18T14:24:59.790Z,973.95
2019-02-18T14:26:10.718Z,973.97
2019-02-18T14:27:21.232Z,974.02
2019-02-18T14:28:31.861Z,973.99
2019-02-18T14:29:41.944Z,974
2019-02-18T14:30:52.186Z,974.01
2019-02-18T14:32:02.192Z,973.97
2019-02-18T14:33:12.173Z,973.99
2019-02-18T14:34:22.185Z,974.01
2019-02-18T14:35:32.164Z,973.99
2019-02-18T14:36:42.254Z,973.96
2019-02-18T14:37:52.230Z,973.97
2019-02-18T14:39:01.971Z,973.97
2019-02-18T14:40:11.948Z,973.99